sensor_id;sensor_type;location;lat;lon;timestamp;P1;durP1;ratioP1;P2;durP2;ratioP2
65658;SDS011;60181;53.258;6.932;2023-05-02T00:03:17;13.50;;;5.40;;
65658;SDS011;60181;53.258;6.932;2023-05-02T00:07:21;14.00;;;5.00;;
65658;SDS011;60181;53.258;6.932;2023-05-02T00:11:25;14.00;;;5.00;;
65658;SDS011;60181;53.258;6.932;2023-05-02T00:15:29;14.00;;;5.00;;
65658;SDS011;60181;53.258;6.932;2023-05-02T00:19:39;13.20;;;4.90;;
65658;SDS011;60181;53.258;6.932;2023-05-02T00:23:37;13.20;;;4.90;;
65658;SDS011;60181;53.258;6.932;2023-05-02T00:27:42;10.90;;;4.70;;
65658;SDS011;60181;53.258;6.932;2023-05-02T00:31:45;10.90;;;4.70;;
65658;SDS011;60181;53.258;6.932;2023-05-02T00:35:49;10.90;;;4.70;;
65658;SDS011;60181;53.258;6.932;2023-05-02T00:39:53;10.60;;;4.40;;
65658;SDS011;60181;53.258;6.932;2023-05-02T00:43:57;10.60;;;4.40;;
65658;SDS011;60181;53.258;6.932;2023-05-02T00:48:01;14.00;;;4.50;;
65658;SDS011;60181;53.258;6.932;2023-05-02T00:52:05;14.00;;;4.50;;
65658;SDS011;60181;53.258;6.932;2023-05-02T00:56:09;14.00;;;4.50;;
65658;SDS011;60181;53.258;6.932;2023-05-02T01:00:13;10.10;;;4.40;;
65658;SDS011;60181;53.258;6.932;2023-05-02T01:04:38;10.10;;;4.40;;
65658;SDS011;60181;53.258;6.932;2023-05-02T01:08:34;10.00;;;4.40;;
65658;SDS011;60181;53.258;6.932;2023-05-02T01:16:29;10.00;;;4.40;;
65658;SDS011;60181;53.258;6.932;2023-05-02T01:20:34;14.40;;;3.80;;
65658;SDS011;60181;53.258;6.932;2023-05-02T01:32:45;12.10;;;3.20;;
65658;SDS011;60181;53.258;6.932;2023-05-02T01:36:49;12.10;;;3.20;;
65658;SDS011;60181;53.258;6.932;2023-05-02T01:40:53;19.40;;;3.50;;
65658;SDS011;60181;53.258;6.932;2023-05-02T01:44:57;19.40;;;3.50;;
65658;SDS011;60181;53.258;6.932;2023-05-02T01:49:02;23.50;;;3.30;;
65658;SDS011;60181;53.258;6.932;2023-05-02T01:53:05;23.50;;;3.30;;
65658;SDS011;60181;53.258;6.932;2023-05-02T01:57:09;16.20;;;3.00;;
65658;SDS011;60181;53.258;6.932;2023-05-02T02:01:13;16.20;;;3.00;;
65658;SDS011;60181;53.258;6.932;2023-05-02T02:05:17;16.20;;;3.00;;
65658;SDS011;60181;53.258;6.932;2023-05-02T02:09:21;19.00;;;3.20;;
65658;SDS011;60181;53.258;6.932;2023-05-02T02:13:26;19.00;;;3.20;;
65658;SDS011;60181;53.258;6.932;2023-05-02T02:17:31;23.10;;;3.80;;
65658;SDS011;60181;53.258;6.932;2023-05-02T02:21:33;23.10;;;3.80;;
65658;SDS011;60181;53.258;6.932;2023-05-02T02:25:37;23.10;;;3.80;;
65658;SDS011;60181;53.258;6.932;2023-05-02T02:29:41;22.30;;;4.40;;
65658;SDS011;60181;53.258;6.932;2023-05-02T02:33:45;22.30;;;4.40;;
65658;SDS011;60181;53.258;6.932;2023-05-02T02:37:51;24.60;;;4.30;;
65658;SDS011;60181;53.258;6.932;2023-05-02T02:42:06;24.60;;;4.30;;
65658;SDS011;60181;53.258;6.932;2023-05-02T02:50:09;19.00;;;3.60;;
65658;SDS011;60181;53.258;6.932;2023-05-02T02:54:23;19.00;;;3.60;;
65658;SDS011;60181;53.258;6.932;2023-05-02T02:58:30;27.10;;;4.30;;
65658;SDS011;60181;53.258;6.932;2023-05-02T03:02:14;27.10;;;4.30;;
65658;SDS011;60181;53.258;6.932;2023-05-02T03:06:17;27.10;;;4.30;;
65658;SDS011;60181;53.258;6.932;2023-05-02T03:10:21;18.70;;;3.50;;
65658;SDS011;60181;53.258;6.932;2023-05-02T03:14:25;18.70;;;3.50;;
65658;SDS011;60181;53.258;6.932;2023-05-02T03:18:29;21.70;;;4.00;;
65658;SDS011;60181;53.258;6.932;2023-05-02T03:22:33;21.70;;;4.00;;
65658;SDS011;60181;53.258;6.932;2023-05-02T03:26:37;21.70;;;4.00;;
65658;SDS011;60181;53.258;6.932;2023-05-02T03:30:41;20.20;;;3.60;;
65658;SDS011;60181;53.258;6.932;2023-05-02T03:34:45;20.20;;;3.60;;
65658;SDS011;60181;53.258;6.932;2023-05-02T03:38:49;15.90;;;3.30;;
65658;SDS011;60181;53.258;6.932;2023-05-02T03:42:53;15.90;;;3.30;;
65658;SDS011;60181;53.258;6.932;2023-05-02T03:46:57;21.00;;;3.20;;
65658;SDS011;60181;53.258;6.932;2023-05-02T03:51:01;21.00;;;3.20;;
65658;SDS011;60181;53.258;6.932;2023-05-02T03:55:05;21.00;;;3.20;;
65658;SDS011;60181;53.258;6.932;2023-05-02T03:59:09;18.60;;;3.00;;
65658;SDS011;60181;53.258;6.932;2023-05-02T04:03:13;18.60;;;3.00;;
65658;SDS011;60181;53.258;6.932;2023-05-02T04:07:17;14.90;;;2.90;;
65658;SDS011;60181;53.258;6.932;2023-05-02T04:11:21;14.90;;;2.90;;
65658;SDS011;60181;53.258;6.932;2023-05-02T04:15:25;14.90;;;2.90;;
65658;SDS011;60181;53.258;6.932;2023-05-02T04:19:29;13.50;;;2.50;;
65658;SDS011;60181;53.258;6.932;2023-05-02T04:23:33;13.50;;;2.50;;
65658;SDS011;60181;53.258;6.932;2023-05-02T04:27:37;12.80;;;2.50;;
65658;SDS011;60181;53.258;6.932;2023-05-02T04:31:41;12.80;;;2.50;;
65658;SDS011;60181;53.258;6.932;2023-05-02T04:35:45;12.80;;;2.50;;
65658;SDS011;60181;53.258;6.932;2023-05-02T04:39:49;7.60;;;2.10;;
65658;SDS011;60181;53.258;6.932;2023-05-02T04:43:53;7.60;;;2.10;;
65658;SDS011;60181;53.258;6.932;2023-05-02T04:47:57;18.00;;;2.70;;
65658;SDS011;60181;53.258;6.932;2023-05-02T04:52:01;18.00;;;2.70;;
65658;SDS011;60181;53.258;6.932;2023-05-02T04:56:05;18.00;;;2.70;;
65658;SDS011;60181;53.258;6.932;2023-05-02T05:00:09;12.90;;;2.40;;
65658;SDS011;60181;53.258;6.932;2023-05-02T05:04:13;12.90;;;2.40;;
65658;SDS011;60181;53.258;6.932;2023-05-02T05:08:17;20.20;;;2.40;;
65658;SDS011;60181;53.258;6.932;2023-05-02T05:12:21;20.20;;;2.40;;
65658;SDS011;60181;53.258;6.932;2023-05-02T05:16:25;20.20;;;2.40;;
65658;SDS011;60181;53.258;6.932;2023-05-02T05:20:29;14.00;;;2.50;;
65658;SDS011;60181;53.258;6.932;2023-05-02T05:24:33;14.00;;;2.50;;
65658;SDS011;60181;53.258;6.932;2023-05-02T05:28:37;10.10;;;2.50;;
65658;SDS011;60181;53.258;6.932;2023-05-02T05:32:41;10.10;;;2.50;;
65658;SDS011;60181;53.258;6.932;2023-05-02T05:36:45;10.10;;;2.50;;
65658;SDS011;60181;53.258;6.932;2023-05-02T05:40:49;10.90;;;2.60;;
65658;SDS011;60181;53.258;6.932;2023-05-02T05:44:53;10.90;;;2.60;;
65658;SDS011;60181;53.258;6.932;2023-05-02T05:48:57;7.70;;;2.30;;
65658;SDS011;60181;53.258;6.932;2023-05-02T05:53:01;7.70;;;2.30;;
65658;SDS011;60181;53.258;6.932;2023-05-02T05:57:05;9.30;;;2.40;;
65658;SDS011;60181;53.258;6.932;2023-05-02T06:01:09;9.30;;;2.40;;
65658;SDS011;60181;53.258;6.932;2023-05-02T06:05:13;9.30;;;2.40;;
65658;SDS011;60181;53.258;6.932;2023-05-02T06:09:17;8.70;;;2.30;;
65658;SDS011;60181;53.258;6.932;2023-05-02T06:13:21;8.70;;;2.30;;
65658;SDS011;60181;53.258;6.932;2023-05-02T06:17:25;5.90;;;2.10;;
65658;SDS011;60181;53.258;6.932;2023-05-02T06:21:29;5.90;;;2.10;;
65658;SDS011;60181;53.258;6.932;2023-05-02T06:25:35;5.90;;;2.10;;
65658;SDS011;60181;53.258;6.932;2023-05-02T06:29:37;8.50;;;2.10;;
65658;SDS011;60181;53.258;6.932;2023-05-02T06:33:41;8.50;;;2.10;;
65658;SDS011;60181;53.258;6.932;2023-05-02T06:37:44;8.60;;;2.40;;
65658;SDS011;60181;53.258;6.932;2023-05-02T06:41:49;8.60;;;2.40;;
65658;SDS011;60181;53.258;6.932;2023-05-02T06:45:53;8.60;;;2.40;;
65658;SDS011;60181;53.258;6.932;2023-05-02T06:49:56;10.60;;;2.50;;
65658;SDS011;60181;53.258;6.932;2023-05-02T06:54:00;10.60;;;2.50;;
65658;SDS011;60181;53.258;6.932;2023-05-02T06:58:04;8.50;;;2.90;;
65658;SDS011;60181;53.258;6.932;2023-05-02T07:02:08;8.50;;;2.90;;
65658;SDS011;60181;53.258;6.932;2023-05-02T07:06:12;8.50;;;2.90;;
65658;SDS011;60181;53.258;6.932;2023-05-02T07:10:16;7.30;;;2.60;;
65658;SDS011;60181;53.258;6.932;2023-05-02T07:14:20;7.30;;;2.60;;
65658;SDS011;60181;53.258;6.932;2023-05-02T07:18:24;8.80;;;3.00;;
65658;SDS011;60181;53.258;6.932;2023-05-02T07:22:28;8.80;;;3.00;;
65658;SDS011;60181;53.258;6.932;2023-05-02T07:26:32;8.80;;;3.00;;
65658;SDS011;60181;53.258;6.932;2023-05-02T07:30:36;7.50;;;3.00;;
65658;SDS011;60181;53.258;6.932;2023-05-02T07:34:40;7.50;;;3.00;;
65658;SDS011;60181;53.258;6.932;2023-05-02T07:38:44;7.60;;;3.10;;
65658;SDS011;60181;53.258;6.932;2023-05-02T07:42:49;7.60;;;3.10;;
65658;SDS011;60181;53.258;6.932;2023-05-02T07:46:52;18.70;;;3.10;;
65658;SDS011;60181;53.258;6.932;2023-05-02T07:51:04;18.70;;;3.10;;
65658;SDS011;60181;53.258;6.932;2023-05-02T07:55:00;18.70;;;3.10;;
65658;SDS011;60181;53.258;6.932;2023-05-02T07:59:04;12.00;;;2.80;;
65658;SDS011;60181;53.258;6.932;2023-05-02T08:03:08;12.00;;;2.80;;
65658;SDS011;60181;53.258;6.932;2023-05-02T08:07:12;10.50;;;2.50;;
65658;SDS011;60181;53.258;6.932;2023-05-02T08:11:16;10.50;;;2.50;;
65658;SDS011;60181;53.258;6.932;2023-05-02T08:15:20;10.50;;;2.50;;
65658;SDS011;60181;53.258;6.932;2023-05-02T08:19:24;11.30;;;2.60;;
65658;SDS011;60181;53.258;6.932;2023-05-02T08:23:28;11.30;;;2.60;;
65658;SDS011;60181;53.258;6.932;2023-05-02T08:27:32;18.30;;;2.70;;
65658;SDS011;60181;53.258;6.932;2023-05-02T08:31:37;18.30;;;2.70;;
65658;SDS011;60181;53.258;6.932;2023-05-02T08:35:40;18.30;;;2.70;;
65658;SDS011;60181;53.258;6.932;2023-05-02T08:39:44;9.00;;;2.80;;
65658;SDS011;60181;53.258;6.932;2023-05-02T08:43:48;9.00;;;2.80;;
65658;SDS011;60181;53.258;6.932;2023-05-02T08:47:52;12.90;;;2.50;;
65658;SDS011;60181;53.258;6.932;2023-05-02T08:51:57;12.90;;;2.50;;
65658;SDS011;60181;53.258;6.932;2023-05-02T08:56:00;12.90;;;2.50;;
65658;SDS011;60181;53.258;6.932;2023-05-02T09:00:05;8.50;;;2.40;;
65658;SDS011;60181;53.258;6.932;2023-05-02T09:04:08;8.50;;;2.40;;
65658;SDS011;60181;53.258;6.932;2023-05-02T09:08:12;7.30;;;2.60;;
65658;SDS011;60181;53.258;6.932;2023-05-02T09:12:16;7.30;;;2.60;;
65658;SDS011;60181;53.258;6.932;2023-05-02T09:16:23;7.30;;;2.60;;
65658;SDS011;60181;53.258;6.932;2023-05-02T09:20:24;12.90;;;2.70;;
65658;SDS011;60181;53.258;6.932;2023-05-02T09:24:28;12.90;;;2.70;;
65658;SDS011;60181;53.258;6.932;2023-05-02T09:28:39;6.10;;;2.70;;
65658;SDS011;60181;53.258;6.932;2023-05-02T09:32:45;6.10;;;2.70;;
65658;SDS011;60181;53.258;6.932;2023-05-02T09:40:53;8.30;;;2.60;;
65658;SDS011;60181;53.258;6.932;2023-05-02T09:44:48;8.30;;;2.60;;
65658;SDS011;60181;53.258;6.932;2023-05-02T09:48:55;8.70;;;2.60;;
65658;SDS011;60181;53.258;6.932;2023-05-02T09:53:03;8.70;;;2.60;;
65658;SDS011;60181;53.258;6.932;2023-05-02T09:57:00;5.60;;;2.50;;
65658;SDS011;60181;53.258;6.932;2023-05-02T10:01:04;5.60;;;2.50;;
65658;SDS011;60181;53.258;6.932;2023-05-02T10:05:08;5.60;;;2.50;;
65658;SDS011;60181;53.258;6.932;2023-05-02T10:09:12;8.30;;;2.70;;
65658;SDS011;60181;53.258;6.932;2023-05-02T10:13:18;8.30;;;2.70;;
65658;SDS011;60181;53.258;6.932;2023-05-02T10:17:27;6.50;;;2.70;;
65658;SDS011;60181;53.258;6.932;2023-05-02T10:21:24;6.50;;;2.70;;
65658;SDS011;60181;53.258;6.932;2023-05-02T10:25:28;6.50;;;2.70;;
65658;SDS011;60181;53.258;6.932;2023-05-02T10:29:32;6.50;;;2.80;;
65658;SDS011;60181;53.258;6.932;2023-05-02T10:33:37;6.50;;;2.80;;
65658;SDS011;60181;53.258;6.932;2023-05-02T10:37:40;6.20;;;2.60;;
65658;SDS011;60181;53.258;6.932;2023-05-02T10:41:44;6.20;;;2.60;;
65658;SDS011;60181;53.258;6.932;2023-05-02T10:45:48;6.20;;;2.60;;
65658;SDS011;60181;53.258;6.932;2023-05-02T10:49:59;9.80;;;2.50;;
65658;SDS011;60181;53.258;6.932;2023-05-02T11:02:05;6.70;;;2.70;;
65658;SDS011;60181;53.258;6.932;2023-05-02T11:06:08;6.70;;;2.70;;
65658;SDS011;60181;53.258;6.932;2023-05-02T11:18:20;6.80;;;2.70;;
65658;SDS011;60181;53.258;6.932;2023-05-02T11:22:29;6.80;;;2.70;;
65658;SDS011;60181;53.258;6.932;2023-05-02T11:26:28;6.80;;;2.70;;
65658;SDS011;60181;53.258;6.932;2023-05-02T11:30:35;5.80;;;2.60;;
65658;SDS011;60181;53.258;6.932;2023-05-02T11:34:40;5.80;;;2.60;;
65658;SDS011;60181;53.258;6.932;2023-05-02T11:38:40;7.40;;;2.60;;
65658;SDS011;60181;53.258;6.932;2023-05-02T11:42:44;7.40;;;2.60;;
65658;SDS011;60181;53.258;6.932;2023-05-02T11:46:48;7.40;;;2.60;;
65658;SDS011;60181;53.258;6.932;2023-05-02T11:51:01;5.70;;;2.70;;
65658;SDS011;60181;53.258;6.932;2023-05-02T11:54:56;5.70;;;2.70;;
65658;SDS011;60181;53.258;6.932;2023-05-02T11:59:01;6.90;;;2.70;;
65658;SDS011;60181;53.258;6.932;2023-05-02T12:03:04;6.90;;;2.70;;
65658;SDS011;60181;53.258;6.932;2023-05-02T12:07:08;6.10;;;2.80;;
65658;SDS011;60181;53.258;6.932;2023-05-02T12:11:12;6.10;;;2.80;;
65658;SDS011;60181;53.258;6.932;2023-05-02T12:15:16;6.10;;;2.80;;
65658;SDS011;60181;53.258;6.932;2023-05-02T12:19:20;6.10;;;2.90;;
65658;SDS011;60181;53.258;6.932;2023-05-02T12:23:24;6.10;;;2.90;;
65658;SDS011;60181;53.258;6.932;2023-05-02T12:27:28;6.60;;;2.80;;
65658;SDS011;60181;53.258;6.932;2023-05-02T12:31:32;6.60;;;2.80;;
65658;SDS011;60181;53.258;6.932;2023-05-02T12:35:36;6.60;;;2.80;;
65658;SDS011;60181;53.258;6.932;2023-05-02T12:39:41;7.30;;;2.90;;
65658;SDS011;60181;53.258;6.932;2023-05-02T12:43:47;7.30;;;2.90;;
65658;SDS011;60181;53.258;6.932;2023-05-02T12:47:48;6.10;;;2.90;;
65658;SDS011;60181;53.258;6.932;2023-05-02T12:51:52;6.10;;;2.90;;
65658;SDS011;60181;53.258;6.932;2023-05-02T12:56:02;6.10;;;2.90;;
65658;SDS011;60181;53.258;6.932;2023-05-02T13:00:00;6.00;;;2.70;;
65658;SDS011;60181;53.258;6.932;2023-05-02T13:04:04;6.00;;;2.70;;
65658;SDS011;60181;53.258;6.932;2023-05-02T13:08:08;5.90;;;2.80;;
65658;SDS011;60181;53.258;6.932;2023-05-02T13:12:12;5.90;;;2.80;;
65658;SDS011;60181;53.258;6.932;2023-05-02T13:16:16;5.90;;;2.80;;
65658;SDS011;60181;53.258;6.932;2023-05-02T13:20:20;7.20;;;2.90;;
65658;SDS011;60181;53.258;6.932;2023-05-02T13:24:24;7.20;;;2.90;;
65658;SDS011;60181;53.258;6.932;2023-05-02T13:28:28;6.00;;;2.70;;
65658;SDS011;60181;53.258;6.932;2023-05-02T13:32:32;6.00;;;2.70;;
65658;SDS011;60181;53.258;6.932;2023-05-02T13:36:36;6.00;;;2.70;;
65658;SDS011;60181;53.258;6.932;2023-05-02T13:40:40;6.20;;;2.90;;
65658;SDS011;60181;53.258;6.932;2023-05-02T13:44:44;6.20;;;2.90;;
65658;SDS011;60181;53.258;6.932;2023-05-02T13:48:48;6.40;;;2.70;;
65658;SDS011;60181;53.258;6.932;2023-05-02T13:52:52;6.40;;;2.70;;
65658;SDS011;60181;53.258;6.932;2023-05-02T13:56:56;6.40;;;2.70;;
65658;SDS011;60181;53.258;6.932;2023-05-02T14:01:00;5.80;;;2.70;;
65658;SDS011;60181;53.258;6.932;2023-05-02T14:05:04;5.80;;;2.70;;
65658;SDS011;60181;53.258;6.932;2023-05-02T14:09:08;6.70;;;2.90;;
65658;SDS011;60181;53.258;6.932;2023-05-02T14:13:12;6.70;;;2.90;;
65658;SDS011;60181;53.258;6.932;2023-05-02T14:17:16;5.60;;;2.90;;
65658;SDS011;60181;53.258;6.932;2023-05-02T14:21:20;5.60;;;2.90;;
65658;SDS011;60181;53.258;6.932;2023-05-02T14:25:24;5.60;;;2.90;;
65658;SDS011;60181;53.258;6.932;2023-05-02T14:29:28;6.30;;;2.90;;
65658;SDS011;60181;53.258;6.932;2023-05-02T14:33:32;6.30;;;2.90;;
65658;SDS011;60181;53.258;6.932;2023-05-02T14:37:36;6.00;;;2.80;;
65658;SDS011;60181;53.258;6.932;2023-05-02T14:41:40;6.00;;;2.80;;
65658;SDS011;60181;53.258;6.932;2023-05-02T14:45:44;6.00;;;2.80;;
65658;SDS011;60181;53.258;6.932;2023-05-02T14:49:48;5.80;;;2.80;;
65658;SDS011;60181;53.258;6.932;2023-05-02T14:53:52;5.80;;;2.80;;
65658;SDS011;60181;53.258;6.932;2023-05-02T14:57:56;5.30;;;2.90;;
65658;SDS011;60181;53.258;6.932;2023-05-02T15:02:00;5.30;;;2.90;;
65658;SDS011;60181;53.258;6.932;2023-05-02T15:06:04;5.30;;;2.90;;
65658;SDS011;60181;53.258;6.932;2023-05-02T15:10:08;5.60;;;2.80;;
65658;SDS011;60181;53.258;6.932;2023-05-02T15:14:12;5.60;;;2.80;;
65658;SDS011;60181;53.258;6.932;2023-05-02T15:18:16;5.30;;;2.70;;
65658;SDS011;60181;53.258;6.932;2023-05-02T15:22:20;5.30;;;2.70;;
65658;SDS011;60181;53.258;6.932;2023-05-02T15:26:24;5.30;;;2.70;;
65658;SDS011;60181;53.258;6.932;2023-05-02T15:30:28;5.00;;;2.70;;
65658;SDS011;60181;53.258;6.932;2023-05-02T15:34:32;5.00;;;2.70;;
65658;SDS011;60181;53.258;6.932;2023-05-02T15:38:36;5.20;;;2.60;;
65658;SDS011;60181;53.258;6.932;2023-05-02T15:42:40;5.20;;;2.60;;
65658;SDS011;60181;53.258;6.932;2023-05-02T15:46:44;5.20;;;2.60;;
65658;SDS011;60181;53.258;6.932;2023-05-02T15:50:48;4.40;;;2.40;;
65658;SDS011;60181;53.258;6.932;2023-05-02T15:54:52;4.40;;;2.40;;
65658;SDS011;60181;53.258;6.932;2023-05-02T15:58:56;5.50;;;2.70;;
65658;SDS011;60181;53.258;6.932;2023-05-02T16:03:00;5.50;;;2.70;;
65658;SDS011;60181;53.258;6.932;2023-05-02T16:07:04;4.30;;;2.40;;
65658;SDS011;60181;53.258;6.932;2023-05-02T16:11:08;4.30;;;2.40;;
65658;SDS011;60181;53.258;6.932;2023-05-02T16:15:12;4.30;;;2.40;;
65658;SDS011;60181;53.258;6.932;2023-05-02T16:19:16;6.20;;;3.00;;
65658;SDS011;60181;53.258;6.932;2023-05-02T16:23:20;6.20;;;3.00;;
65658;SDS011;60181;53.258;6.932;2023-05-02T16:27:24;7.70;;;3.00;;
65658;SDS011;60181;53.258;6.932;2023-05-02T16:31:28;7.70;;;3.00;;
65658;SDS011;60181;53.258;6.932;2023-05-02T16:35:32;7.70;;;3.00;;
65658;SDS011;60181;53.258;6.932;2023-05-02T16:39:36;6.10;;;2.70;;
65658;SDS011;60181;53.258;6.932;2023-05-02T16:43:40;6.10;;;2.70;;
65658;SDS011;60181;53.258;6.932;2023-05-02T16:47:44;6.00;;;2.80;;
65658;SDS011;60181;53.258;6.932;2023-05-02T16:51:48;6.00;;;2.80;;
65658;SDS011;60181;53.258;6.932;2023-05-02T16:55:52;6.00;;;2.80;;
65658;SDS011;60181;53.258;6.932;2023-05-02T16:59:56;6.60;;;3.20;;
65658;SDS011;60181;53.258;6.932;2023-05-02T17:04:00;6.60;;;3.20;;
65658;SDS011;60181;53.258;6.932;2023-05-02T17:08:04;6.50;;;3.20;;
65658;SDS011;60181;53.258;6.932;2023-05-02T17:12:08;6.50;;;3.20;;
65658;SDS011;60181;53.258;6.932;2023-05-02T17:16:12;6.50;;;3.20;;
65658;SDS011;60181;53.258;6.932;2023-05-02T17:20:16;5.80;;;3.00;;
65658;SDS011;60181;53.258;6.932;2023-05-02T17:24:20;5.80;;;3.00;;
65658;SDS011;60181;53.258;6.932;2023-05-02T17:28:24;7.30;;;2.70;;
65658;SDS011;60181;53.258;6.932;2023-05-02T17:32:28;7.30;;;2.70;;
65658;SDS011;60181;53.258;6.932;2023-05-02T17:36:32;7.30;;;2.70;;
65658;SDS011;60181;53.258;6.932;2023-05-02T17:40:36;6.50;;;2.70;;
65658;SDS011;60181;53.258;6.932;2023-05-02T17:44:40;6.50;;;2.70;;
65658;SDS011;60181;53.258;6.932;2023-05-02T17:48:44;5.60;;;2.70;;
65658;SDS011;60181;53.258;6.932;2023-05-02T17:52:48;5.60;;;2.70;;
65658;SDS011;60181;53.258;6.932;2023-05-02T17:56:52;5.60;;;2.70;;
65658;SDS011;60181;53.258;6.932;2023-05-02T18:00:56;6.60;;;2.80;;
65658;SDS011;60181;53.258;6.932;2023-05-02T18:05:00;6.60;;;2.80;;
65658;SDS011;60181;53.258;6.932;2023-05-02T18:09:04;7.20;;;2.50;;
65658;SDS011;60181;53.258;6.932;2023-05-02T18:13:08;7.20;;;2.50;;
65658;SDS011;60181;53.258;6.932;2023-05-02T18:17:12;6.10;;;2.60;;
65658;SDS011;60181;53.258;6.932;2023-05-02T18:21:21;6.10;;;2.60;;
65658;SDS011;60181;53.258;6.932;2023-05-02T18:25:20;6.10;;;2.60;;
65658;SDS011;60181;53.258;6.932;2023-05-02T18:29:24;6.40;;;2.40;;
65658;SDS011;60181;53.258;6.932;2023-05-02T18:33:28;6.40;;;2.40;;
65658;SDS011;60181;53.258;6.932;2023-05-02T18:37:32;13.40;;;2.70;;
65658;SDS011;60181;53.258;6.932;2023-05-02T18:41:36;13.40;;;2.70;;
65658;SDS011;60181;53.258;6.932;2023-05-02T18:45:40;13.40;;;2.70;;
65658;SDS011;60181;53.258;6.932;2023-05-02T18:49:43;8.60;;;2.90;;
65658;SDS011;60181;53.258;6.932;2023-05-02T18:53:47;8.60;;;2.90;;
65658;SDS011;60181;53.258;6.932;2023-05-02T18:57:52;6.40;;;2.70;;
65658;SDS011;60181;53.258;6.932;2023-05-02T19:01:56;6.40;;;2.70;;
65658;SDS011;60181;53.258;6.932;2023-05-02T19:05:59;6.40;;;2.70;;
65658;SDS011;60181;53.258;6.932;2023-05-02T19:10:04;5.40;;;2.60;;
65658;SDS011;60181;53.258;6.932;2023-05-02T19:14:08;5.40;;;2.60;;
65658;SDS011;60181;53.258;6.932;2023-05-02T19:18:12;6.40;;;2.70;;
65658;SDS011;60181;53.258;6.932;2023-05-02T19:22:16;6.40;;;2.70;;
65658;SDS011;60181;53.258;6.932;2023-05-02T19:26:19;6.40;;;2.70;;
65658;SDS011;60181;53.258;6.932;2023-05-02T19:30:23;5.90;;;2.60;;
65658;SDS011;60181;53.258;6.932;2023-05-02T19:34:27;5.90;;;2.60;;
65658;SDS011;60181;53.258;6.932;2023-05-02T19:38:32;6.40;;;2.60;;
65658;SDS011;60181;53.258;6.932;2023-05-02T19:42:35;6.40;;;2.60;;
65658;SDS011;60181;53.258;6.932;2023-05-02T19:46:39;6.40;;;2.60;;
65658;SDS011;60181;53.258;6.932;2023-05-02T19:50:43;5.00;;;2.50;;
65658;SDS011;60181;53.258;6.932;2023-05-02T19:54:49;5.00;;;2.50;;
65658;SDS011;60181;53.258;6.932;2023-05-02T19:58:52;5.80;;;2.50;;
65658;SDS011;60181;53.258;6.932;2023-05-02T20:02:55;5.80;;;2.50;;
65658;SDS011;60181;53.258;6.932;2023-05-02T20:06:59;6.70;;;2.70;;
65658;SDS011;60181;53.258;6.932;2023-05-02T20:11:03;6.70;;;2.70;;
65658;SDS011;60181;53.258;6.932;2023-05-02T20:15:08;6.70;;;2.70;;
65658;SDS011;60181;53.258;6.932;2023-05-02T20:19:12;5.60;;;2.40;;
65658;SDS011;60181;53.258;6.932;2023-05-02T20:23:15;5.60;;;2.40;;
65658;SDS011;60181;53.258;6.932;2023-05-02T20:27:19;7.30;;;2.60;;
65658;SDS011;60181;53.258;6.932;2023-05-02T20:31:23;7.30;;;2.60;;
65658;SDS011;60181;53.258;6.932;2023-05-02T20:35:27;7.30;;;2.60;;
65658;SDS011;60181;53.258;6.932;2023-05-02T20:39:31;4.60;;;2.60;;
65658;SDS011;60181;53.258;6.932;2023-05-02T20:43:35;4.60;;;2.60;;
65658;SDS011;60181;53.258;6.932;2023-05-02T20:47:39;4.80;;;2.50;;
65658;SDS011;60181;53.258;6.932;2023-05-02T20:51:43;4.80;;;2.50;;
65658;SDS011;60181;53.258;6.932;2023-05-02T20:55:48;4.80;;;2.50;;
65658;SDS011;60181;53.258;6.932;2023-05-02T20:59:51;4.40;;;2.20;;
65658;SDS011;60181;53.258;6.932;2023-05-02T21:03:55;4.40;;;2.20;;
65658;SDS011;60181;53.258;6.932;2023-05-02T21:07:59;13.80;;;2.60;;
65658;SDS011;60181;53.258;6.932;2023-05-02T21:12:03;13.80;;;2.60;;
65658;SDS011;60181;53.258;6.932;2023-05-02T21:16:14;13.80;;;2.60;;
65658;SDS011;60181;53.258;6.932;2023-05-02T21:20:11;8.90;;;2.30;;
65658;SDS011;60181;53.258;6.932;2023-05-02T21:24:15;8.90;;;2.30;;
65658;SDS011;60181;53.258;6.932;2023-05-02T21:28:19;6.40;;;2.10;;
65658;SDS011;60181;53.258;6.932;2023-05-02T21:32:23;6.40;;;2.10;;
65658;SDS011;60181;53.258;6.932;2023-05-02T21:36:27;6.40;;;2.10;;
65658;SDS011;60181;53.258;6.932;2023-05-02T21:40:33;7.00;;;2.30;;
65658;SDS011;60181;53.258;6.932;2023-05-02T21:44:35;7.00;;;2.30;;
65658;SDS011;60181;53.258;6.932;2023-05-02T21:48:39;8.10;;;2.30;;
65658;SDS011;60181;53.258;6.932;2023-05-02T21:52:46;8.10;;;2.30;;
65658;SDS011;60181;53.258;6.932;2023-05-02T21:56:47;8.10;;;2.30;;
65658;SDS011;60181;53.258;6.932;2023-05-02T22:00:51;7.00;;;2.20;;
65658;SDS011;60181;53.258;6.932;2023-05-02T22:04:55;7.00;;;2.20;;
65658;SDS011;60181;53.258;6.932;2023-05-02T22:08:59;7.70;;;1.90;;
65658;SDS011;60181;53.258;6.932;2023-05-02T22:13:03;7.70;;;1.90;;
65658;SDS011;60181;53.258;6.932;2023-05-02T22:17:07;4.80;;;1.80;;
65658;SDS011;60181;53.258;6.932;2023-05-02T22:21:11;4.80;;;1.80;;
65658;SDS011;60181;53.258;6.932;2023-05-02T22:25:15;4.80;;;1.80;;
65658;SDS011;60181;53.258;6.932;2023-05-02T22:29:19;5.10;;;1.90;;
65658;SDS011;60181;53.258;6.932;2023-05-02T22:33:23;5.10;;;1.90;;
65658;SDS011;60181;53.258;6.932;2023-05-02T22:37:27;8.60;;;1.80;;
65658;SDS011;60181;53.258;6.932;2023-05-02T22:41:31;8.60;;;1.80;;
65658;SDS011;60181;53.258;6.932;2023-05-02T22:45:35;8.60;;;1.80;;
65658;SDS011;60181;53.258;6.932;2023-05-02T22:49:39;6.00;;;2.00;;
65658;SDS011;60181;53.258;6.932;2023-05-02T22:53:43;6.00;;;2.00;;
65658;SDS011;60181;53.258;6.932;2023-05-02T22:57:47;6.40;;;1.80;;
65658;SDS011;60181;53.258;6.932;2023-05-02T23:01:51;6.40;;;1.80;;
65658;SDS011;60181;53.258;6.932;2023-05-02T23:05:55;6.40;;;1.80;;
65658;SDS011;60181;53.258;6.932;2023-05-02T23:09:59;4.90;;;1.80;;
65658;SDS011;60181;53.258;6.932;2023-05-02T23:14:03;4.90;;;1.80;;
65658;SDS011;60181;53.258;6.932;2023-05-02T23:18:07;4.40;;;1.70;;
65658;SDS011;60181;53.258;6.932;2023-05-02T23:22:11;4.40;;;1.70;;
65658;SDS011;60181;53.258;6.932;2023-05-02T23:26:15;4.40;;;1.70;;
65658;SDS011;60181;53.258;6.932;2023-05-02T23:30:19;5.10;;;2.00;;
65658;SDS011;60181;53.258;6.932;2023-05-02T23:34:23;5.10;;;2.00;;
65658;SDS011;60181;53.258;6.932;2023-05-02T23:38:27;4.70;;;1.80;;
65658;SDS011;60181;53.258;6.932;2023-05-02T23:42:31;4.70;;;1.80;;
65658;SDS011;60181;53.258;6.932;2023-05-02T23:46:35;4.70;;;1.80;;
65658;SDS011;60181;53.258;6.932;2023-05-02T23:50:39;5.60;;;2.00;;
65658;SDS011;60181;53.258;6.932;2023-05-02T23:54:43;5.60;;;2.00;;
65658;SDS011;60181;53.258;6.932;2023-05-02T23:58:47;4.70;;;2.10;;
